createdAt,value
2022-08-21T00:01:38.171Z,25.60
2022-08-21T00:04:05.910Z,25.80
2022-08-21T00:06:33.932Z,25.90
2022-08-21T00:09:06.107Z,26.10
2022-08-21T00:11:33.613Z,26.20
2022-08-21T00:14:00.314Z,26.40
2022-08-21T00:16:27.187Z,26.50
2022-08-21T00:18:53.897Z,26.50
2022-08-21T00:21:20.576Z,26.40
2022-08-21T00:23:47.311Z,26.40
2022-08-21T00:26:14.008Z,26.20
2022-08-21T00:28:40.845Z,26.10
2022-08-21T00:31:07.553Z,26.10
2022-08-21T00:33:34.810Z,26.00
2022-08-21T00:36:01.559Z,25.90
2022-08-21T00:38:28.257Z,25.90
2022-08-21T00:40:58.798Z,25.80
2022-08-21T00:43:28.850Z,25.80
2022-08-21T00:45:56.324Z,25.70
2022-08-21T00:48:23.396Z,25.70
2022-08-21T00:50:52.035Z,25.70
2022-08-21T00:53:18.729Z,25.70
2022-08-21T00:55:45.899Z,25.60
2022-08-21T00:58:12.894Z,25.60
2022-08-21T01:00:41.524Z,25.60
2022-08-21T01:03:10.150Z,25.60
2022-08-21T01:05:37.664Z,25.60
2022-08-21T01:08:04.592Z,25.60
2022-08-21T01:10:31.288Z,25.50
2022-08-21T01:12:58.295Z,25.50
2022-08-21T01:15:26.020Z,25.50
2022-08-21T01:17:52.692Z,25.50
2022-08-21T01:20:19.412Z,25.50
2022-08-21T01:22:46.180Z,25.50
2022-08-21T01:25:13.902Z,25.50
2022-08-21T01:27:40.650Z,25.60
2022-08-21T01:30:12.247Z,25.70
2022-08-21T01:32:38.970Z,25.90
2022-08-21T01:35:05.922Z,26.10
2022-08-21T01:37:32.760Z,26.20
2022-08-21T01:39:59.777Z,26.40
2022-08-21T01:42:26.482Z,26.50
2022-08-21T01:44:54.408Z,26.50
2022-08-21T01:47:23.045Z,26.40
2022-08-21T01:49:49.827Z,26.30
2022-08-21T01:52:16.544Z,26.20
2022-08-21T01:54:43.332Z,26.10
2022-08-21T01:57:11.040Z,26.10
2022-08-21T01:59:38.216Z,25.90
2022-08-21T02:02:05.044Z,25.90
2022-08-21T02:04:31.941Z,25.80
2022-08-21T02:06:58.685Z,25.80
2022-08-21T02:09:25.472Z,25.80
2022-08-21T02:11:52.542Z,25.70
2022-08-21T02:14:31.993Z,25.70
2022-08-21T02:17:05.258Z,25.70
2022-08-21T02:19:40.217Z,25.60
2022-08-21T02:22:10.702Z,25.60
2022-08-21T02:24:38.532Z,25.60
2022-08-21T02:27:26.202Z,25.60
2022-08-21T02:29:54.364Z,25.60
2022-08-21T02:32:22.392Z,25.60
2022-08-21T02:34:49.971Z,25.60
2022-08-21T02:37:16.806Z,25.50
2022-08-21T02:39:43.565Z,25.50
2022-08-21T02:42:10.320Z,25.50
2022-08-21T02:44:37.004Z,25.50
2022-08-21T02:47:03.701Z,25.50
2022-08-21T02:49:30.420Z,25.50
2022-08-21T02:51:57.207Z,25.60
2022-08-21T02:54:23.959Z,25.70
2022-08-21T02:56:50.659Z,25.90
2022-08-21T02:59:17.402Z,26.10
2022-08-21T03:01:44.189Z,26.20
2022-08-21T03:04:11.504Z,26.40
2022-08-21T03:06:38.221Z,26.50
2022-08-21T03:09:05.003Z,26.50
2022-08-21T03:11:31.705Z,26.40
2022-08-21T03:13:58.546Z,26.30
2022-08-21T03:16:25.283Z,26.20
2022-08-21T03:18:51.983Z,26.10
2022-08-21T03:21:20.042Z,26.10
2022-08-21T03:23:46.820Z,26.00
2022-08-21T03:26:13.583Z,25.90
2022-08-21T03:28:40.781Z,25.80
2022-08-21T03:31:10.582Z,25.80
2022-08-21T03:33:37.270Z,25.70
2022-08-21T03:36:05.495Z,25.70
2022-08-21T03:38:32.641Z,25.70
2022-08-21T03:40:59.488Z,25.70
2022-08-21T03:43:26.268Z,25.60
2022-08-21T03:45:53.951Z,25.70
2022-08-21T03:48:20.686Z,25.60
2022-08-21T03:50:48.304Z,25.60
2022-08-21T03:53:17.566Z,25.60
2022-08-21T03:55:47.980Z,25.60
2022-08-21T03:58:16.362Z,25.60
2022-08-21T04:00:44.866Z,25.50
2022-08-21T04:03:11.564Z,25.50
2022-08-21T04:05:38.559Z,25.50
2022-08-21T04:08:05.656Z,25.50
2022-08-21T04:10:32.974Z,25.50
2022-08-21T04:12:59.834Z,25.50
2022-08-21T04:15:26.891Z,25.50
2022-08-21T04:17:53.711Z,25.50
2022-08-21T04:20:20.429Z,25.60
2022-08-21T04:22:47.196Z,25.80
2022-08-21T04:25:14.379Z,25.90
2022-08-21T04:27:44.025Z,26.10
2022-08-21T04:30:11.161Z,26.20
2022-08-21T04:32:38.133Z,26.40
2022-08-21T04:35:06.134Z,26.40
2022-08-21T04:37:32.842Z,26.40
2022-08-21T04:39:59.644Z,26.30
2022-08-21T04:42:27.038Z,26.20
2022-08-21T04:44:53.825Z,26.10
2022-08-21T04:47:20.535Z,26.00
2022-08-21T04:49:47.297Z,25.90
2022-08-21T04:52:14.673Z,25.80
2022-08-21T04:54:41.425Z,25.80
2022-08-21T04:57:08.660Z,25.80
2022-08-21T04:59:39.618Z,25.70
2022-08-21T05:02:07.006Z,25.70
2022-08-21T05:04:34.212Z,25.60
2022-08-21T05:07:01.979Z,25.70
2022-08-21T05:09:34.324Z,25.60
2022-08-21T05:12:04.739Z,25.60
2022-08-21T05:14:31.728Z,25.60
2022-08-21T05:16:58.521Z,25.60
2022-08-21T05:19:25.317Z,25.50
2022-08-21T05:21:52.273Z,25.50
2022-08-21T05:24:19.002Z,25.50
2022-08-21T05:26:46.664Z,25.50
2022-08-21T05:29:15.148Z,25.50
2022-08-21T05:31:43.282Z,25.50
2022-08-21T05:34:10.002Z,25.50
2022-08-21T05:36:37.117Z,25.50
2022-08-21T05:39:03.871Z,25.40
2022-08-21T05:41:30.632Z,25.40
2022-08-21T05:44:00.917Z,25.40
2022-08-21T05:46:27.627Z,25.60
2022-08-21T05:48:54.331Z,25.70
2022-08-21T05:51:21.035Z,25.90
2022-08-21T05:53:48.434Z,26.10
2022-08-21T05:56:15.198Z,26.20
2022-08-21T05:58:43.084Z,26.40
2022-08-21T06:01:10.127Z,26.50
2022-08-21T06:03:38.815Z,26.50
2022-08-21T06:06:05.647Z,26.20
2022-08-21T06:08:32.461Z,25.80
2022-08-21T06:10:59.725Z,25.30
2022-08-21T06:13:26.544Z,24.90
2022-08-21T06:16:07.329Z,24.60
2022-08-21T06:18:34.296Z,24.40
2022-08-21T06:21:01.348Z,24.20
2022-08-21T06:23:33.284Z,24.00
2022-08-21T06:26:00.812Z,23.80
2022-08-21T06:28:27.575Z,23.60
2022-08-21T06:30:54.265Z,23.50
2022-08-21T06:33:20.976Z,23.30
2022-08-21T06:35:47.689Z,23.20
2022-08-21T06:38:14.545Z,23.10
2022-08-21T06:40:43.976Z,22.90
2022-08-21T06:43:15.460Z,22.80
2022-08-21T06:45:42.322Z,22.70
2022-08-21T06:48:09.109Z,22.60
2022-08-21T06:50:37.876Z,22.40
2022-08-21T06:53:05.766Z,22.30
2022-08-21T06:55:33.166Z,22.30
2022-08-21T06:58:00.046Z,22.30
2022-08-21T07:00:26.785Z,22.20
2022-08-21T07:02:53.552Z,22.20
2022-08-21T07:05:20.269Z,22.20
2022-08-21T07:07:47.017Z,22.10
2022-08-21T07:10:22.165Z,22.00
2022-08-21T07:12:51.064Z,22.00
2022-08-21T07:15:20.218Z,22.00
2022-08-21T07:17:46.916Z,22.00
2022-08-21T07:20:14.108Z,21.90
2022-08-21T07:22:41.010Z,21.90
2022-08-21T07:25:08.092Z,21.90
2022-08-21T07:27:34.781Z,21.90
2022-08-21T07:30:01.493Z,21.90
2022-08-21T07:32:28.268Z,21.90
2022-08-21T07:34:55.008Z,21.90
2022-08-21T07:37:21.711Z,22.00
2022-08-21T07:39:50.147Z,22.10
2022-08-21T07:42:17.016Z,22.10
2022-08-21T07:44:44.057Z,22.10
2022-08-21T07:47:10.800Z,22.10
2022-08-21T07:49:37.494Z,22.20
2022-08-21T07:52:04.334Z,22.20
2022-08-21T07:54:33.864Z,22.20
2022-08-21T07:57:01.679Z,22.20
2022-08-21T07:59:28.695Z,22.20
2022-08-21T08:01:55.405Z,22.20
2022-08-21T08:04:26.241Z,22.20
2022-08-21T08:06:53.535Z,22.30
2022-08-21T08:09:20.804Z,22.30
2022-08-21T08:11:47.621Z,22.30
2022-08-21T08:14:14.405Z,22.30
2022-08-21T08:16:41.350Z,22.30
2022-08-21T08:19:08.232Z,22.30
2022-08-21T08:21:35.300Z,22.30
2022-08-21T08:24:18.322Z,22.30
2022-08-21T08:26:46.480Z,22.30
2022-08-21T08:29:20.779Z,22.30
2022-08-21T08:31:47.526Z,22.40
2022-08-21T08:34:23.475Z,22.40
2022-08-21T08:36:52.315Z,22.40
2022-08-21T08:39:26.881Z,22.40
2022-08-21T08:42:01.064Z,22.40
2022-08-21T08:44:30.358Z,22.50
2022-08-21T08:46:57.743Z,22.60
2022-08-21T08:49:28.219Z,22.60
2022-08-21T08:51:56.374Z,22.60
2022-08-21T08:54:43.727Z,22.60
2022-08-21T08:57:18.425Z,22.60
2022-08-21T09:00:07.190Z,22.60
2022-08-21T09:02:35.085Z,22.70
2022-08-21T09:05:01.951Z,22.70
2022-08-21T09:07:34.728Z,22.70
2022-08-21T09:10:08.582Z,22.70
2022-08-21T09:12:39.464Z,22.70
2022-08-21T09:15:24.989Z,22.80
2022-08-21T09:18:04.635Z,22.90
2022-08-21T09:20:37.929Z,23.10
2022-08-21T09:23:23.388Z,23.20
2022-08-21T09:25:56.821Z,23.40
2022-08-21T09:28:23.535Z,23.50
2022-08-21T09:30:50.293Z,23.70
2022-08-21T09:33:18.492Z,23.80
2022-08-21T09:35:52.488Z,23.90
2022-08-21T09:38:30.250Z,24.00
2022-08-21T09:40:58.433Z,24.10
2022-08-21T09:43:26.400Z,24.10
2022-08-21T09:46:03.917Z,24.10
2022-08-21T09:48:32.921Z,24.20
2022-08-21T09:51:08.825Z,24.20
2022-08-21T09:53:36.728Z,24.30
2022-08-21T09:56:24.157Z,24.30
2022-08-21T09:58:51.968Z,24.30
2022-08-21T10:01:20.051Z,24.30
2022-08-21T10:03:49.592Z,24.30
2022-08-21T10:06:26.519Z,24.30
2022-08-21T10:09:03.750Z,24.40
2022-08-21T10:11:30.502Z,24.40
2022-08-21T10:13:59.761Z,24.40
2022-08-21T10:16:29.547Z,24.40
2022-08-21T10:19:06.127Z,24.50
2022-08-21T10:21:32.876Z,24.50
2022-08-21T10:24:11.343Z,24.50
2022-08-21T10:27:01.726Z,24.60
2022-08-21T10:29:45.136Z,24.80
2022-08-21T10:32:22.517Z,24.90
2022-08-21T10:34:57.617Z,25.10
2022-08-21T10:37:28.352Z,25.30
2022-08-21T10:40:13.945Z,25.50
2022-08-21T10:42:59.952Z,25.60
2022-08-21T10:45:26.803Z,25.70
2022-08-21T10:47:57.819Z,25.60
2022-08-21T10:50:31.149Z,25.60
2022-08-21T10:53:07.290Z,25.50
2022-08-21T10:55:46.474Z,25.40
2022-08-21T10:58:44.758Z,25.40
2022-08-21T11:01:23.788Z,25.30
2022-08-21T11:03:55.692Z,25.20
2022-08-21T11:06:26.304Z,25.20
2022-08-21T11:08:55.443Z,25.20
2022-08-21T11:11:29.436Z,25.10
2022-08-21T11:14:05.907Z,25.10
2022-08-21T11:16:41.637Z,25.10
2022-08-21T11:19:10.061Z,25.10
2022-08-21T11:21:39.854Z,25.00
2022-08-21T11:24:15.466Z,25.10
2022-08-21T11:26:53.983Z,25.00
2022-08-21T11:29:34.752Z,25.00
2022-08-21T11:32:04.466Z,25.00
2022-08-21T11:34:50.024Z,25.10
2022-08-21T11:37:20.133Z,25.20
2022-08-21T11:40:05.627Z,25.40
2022-08-21T11:42:40.865Z,25.60
2022-08-21T11:45:13.883Z,25.80
2022-08-21T11:47:43.602Z,25.90
2022-08-21T11:50:34.030Z,26.00
2022-08-21T11:53:06.355Z,26.10
2022-08-21T11:55:38.459Z,26.00
2022-08-21T11:58:06.664Z,25.90
2022-08-21T12:00:36.587Z,25.80
2022-08-21T12:03:10.633Z,25.80
2022-08-21T12:05:39.346Z,25.70
2022-08-21T12:08:16.342Z,25.70
2022-08-21T12:10:46.694Z,25.60
2022-08-21T12:13:42.953Z,25.50
2022-08-21T12:16:10.607Z,25.50
2022-08-21T12:18:39.072Z,25.40
2022-08-21T12:21:05.932Z,25.40
2022-08-21T12:23:34.087Z,25.40
2022-08-21T12:26:01.497Z,25.40
2022-08-21T12:28:28.574Z,25.40
2022-08-21T12:30:58.114Z,25.40
2022-08-21T12:33:34.193Z,25.40
2022-08-21T12:36:15.385Z,25.30
2022-08-21T12:38:42.232Z,25.40
2022-08-21T12:41:16.153Z,25.40
2022-08-21T12:43:46.599Z,25.50
2022-08-21T12:46:20.308Z,25.70
2022-08-21T12:48:52.375Z,25.80
2022-08-21T12:51:20.054Z,26.00
2022-08-21T12:53:48.023Z,26.10
2022-08-21T12:56:18.407Z,26.30
2022-08-21T12:58:49.556Z,26.20
2022-08-21T13:01:16.347Z,26.10
2022-08-21T13:03:43.181Z,26.10
2022-08-21T13:06:13.834Z,26.00
2022-08-21T13:08:45.513Z,25.90
2022-08-21T13:11:15.620Z,25.90
2022-08-21T13:13:46.843Z,25.80
2022-08-21T13:16:19.768Z,25.80
2022-08-21T13:18:55.949Z,25.70
2022-08-21T13:21:22.760Z,25.60
2022-08-21T13:23:58.718Z,25.60
2022-08-21T13:26:41.305Z,25.60
2022-08-21T13:29:13.426Z,25.60
2022-08-21T13:31:55.080Z,25.50
2022-08-21T13:34:37.773Z,25.50
2022-08-21T13:37:11.498Z,25.50
2022-08-21T13:39:45.938Z,25.50
2022-08-21T13:42:27.154Z,25.40
2022-08-21T13:44:57.233Z,25.50
2022-08-21T13:47:27.843Z,25.60
2022-08-21T13:49:59.382Z,25.80
2022-08-21T13:52:27.361Z,25.90
2022-08-21T13:55:09.871Z,26.10
2022-08-21T13:57:45.600Z,26.20
2022-08-21T14:00:23.391Z,26.40
2022-08-21T14:02:51.592Z,26.30
2022-08-21T14:05:53.823Z,26.30
2022-08-21T14:08:30.809Z,26.20
2022-08-21T14:11:00.849Z,26.10
2022-08-21T14:13:35.865Z,26.00
2022-08-21T14:16:12.363Z,25.90
2022-08-21T14:19:08.370Z,25.80
2022-08-21T14:22:05.839Z,25.80
2022-08-21T14:24:45.272Z,25.80
2022-08-21T14:27:57.478Z,25.70
2022-08-21T14:30:38.357Z,25.70
2022-08-21T14:33:37.295Z,25.70
2022-08-21T14:36:06.594Z,25.70
2022-08-21T14:38:44.818Z,25.60
2022-08-21T14:41:58.709Z,25.60
2022-08-21T14:44:30.863Z,25.60
2022-08-21T14:46:59.619Z,25.70
2022-08-21T14:49:35.100Z,25.80
2022-08-21T14:52:07.647Z,26.00
2022-08-21T14:54:39.922Z,26.10
2022-08-21T14:57:28.032Z,26.30
2022-08-21T15:00:02.343Z,26.40
2022-08-21T15:02:37.281Z,26.40
2022-08-21T15:05:16.051Z,26.40
2022-08-21T15:07:58.123Z,26.40
2022-08-21T15:10:33.397Z,26.30
2022-08-21T15:13:13.521Z,26.20
2022-08-21T15:15:46.176Z,26.10
2022-08-21T15:18:20.682Z,26.10
2022-08-21T15:20:50.039Z,26.00
2022-08-21T15:23:19.857Z,25.90
2022-08-21T15:25:49.671Z,25.90
2022-08-21T15:28:31.650Z,25.90
2022-08-21T15:31:04.719Z,25.80
2022-08-21T15:33:32.066Z,25.80
2022-08-21T15:36:09.039Z,25.80
2022-08-21T15:38:37.873Z,25.80
2022-08-21T15:41:08.978Z,25.80
2022-08-21T15:43:42.876Z,25.80
2022-08-21T15:46:35.778Z,25.80
2022-08-21T15:49:12.661Z,25.90
2022-08-21T15:51:49.698Z,26.10
2022-08-21T15:54:39.231Z,26.30
2022-08-21T15:57:22.546Z,26.40
2022-08-21T15:59:54.926Z,26.60
2022-08-21T16:02:37.671Z,26.70
2022-08-21T16:05:13.250Z,26.60
2022-08-21T16:07:55.106Z,26.50
2022-08-21T16:10:33.297Z,26.50
2022-08-21T16:13:10.002Z,26.40
2022-08-21T16:15:40.938Z,26.30
2022-08-21T16:18:30.019Z,26.20
2022-08-21T16:21:18.886Z,26.10
2022-08-21T16:23:48.882Z,26.10
2022-08-21T16:29:43.620Z,26.00
2022-08-21T16:32:15.838Z,25.90
2022-08-21T16:34:54.939Z,25.90
2022-08-21T16:37:26.113Z,25.90
2022-08-21T16:40:04.264Z,25.80
2022-08-21T16:42:46.083Z,25.80
2022-08-21T16:45:20.827Z,25.80
2022-08-21T16:47:57.958Z,25.90
2022-08-21T16:50:39.580Z,26.00
2022-08-21T16:53:16.864Z,26.10
2022-08-21T16:55:47.064Z,26.30
2022-08-21T16:58:45.674Z,26.40
2022-08-21T17:01:15.235Z,26.50
2022-08-21T17:03:43.868Z,26.60
2022-08-21T17:06:13.556Z,26.60
2022-08-21T17:08:42.949Z,26.50
2022-08-21T17:11:13.389Z,26.40
2022-08-21T17:14:01.321Z,26.30
2022-08-21T17:16:36.382Z,26.20
2022-08-21T17:19:21.300Z,26.10
2022-08-21T17:21:51.528Z,26.10
2022-08-21T17:24:18.886Z,26.00
2022-08-21T17:26:49.279Z,26.00
2022-08-21T17:29:22.642Z,25.90
2022-08-21T17:31:58.027Z,25.90
2022-08-21T17:34:31.171Z,25.90
2022-08-21T17:37:01.693Z,25.80
2022-08-21T17:39:39.612Z,25.90
2022-08-21T17:42:19.644Z,25.80
2022-08-21T17:44:53.005Z,25.80
2022-08-21T17:47:22.772Z,25.80
2022-08-21T17:49:56.692Z,26.00
2022-08-21T17:52:29.443Z,26.10
2022-08-21T17:55:00.178Z,26.30
2022-08-21T17:57:37.048Z,26.40
2022-08-21T18:00:11.842Z,26.40
2022-08-21T18:02:45.593Z,26.40
2022-08-21T18:05:16.004Z,26.40
2022-08-21T18:07:43.211Z,26.20
2022-08-21T18:10:16.151Z,26.10
2022-08-21T18:12:50.049Z,26.00
2022-08-21T18:15:22.374Z,25.90
2022-08-21T18:17:57.784Z,25.80
2022-08-21T18:20:29.648Z,25.70
2022-08-21T18:23:00.275Z,25.60
2022-08-21T18:25:34.833Z,25.50
2022-08-21T18:28:05.980Z,25.40
2022-08-21T18:30:39.005Z,25.40
2022-08-21T18:33:09.201Z,25.30
2022-08-21T18:35:46.647Z,25.20
2022-08-21T18:38:18.334Z,25.20
2022-08-21T18:40:56.130Z,25.10
2022-08-21T18:43:31.857Z,25.00
2022-08-21T18:45:59.057Z,25.00
2022-08-21T18:48:39.633Z,24.90
2022-08-21T18:51:12.487Z,24.90
2022-08-21T18:53:41.941Z,24.80
2022-08-21T18:56:26.317Z,24.70
2022-08-21T18:59:04.646Z,24.70
2022-08-21T19:01:57.484Z,24.60
2022-08-21T19:04:42.937Z,24.70
2022-08-21T19:07:20.839Z,24.80
2022-08-21T19:10:24.661Z,24.90
2022-08-21T19:12:44.500Z,25.00
2022-08-21T19:15:15.315Z,25.10
2022-08-21T19:17:42.044Z,25.10
2022-08-21T19:20:25.535Z,25.00
2022-08-21T19:22:53.165Z,24.90
2022-08-21T19:25:20.515Z,24.90
2022-08-21T19:28:01.040Z,24.80
2022-08-21T19:30:28.840Z,24.70
2022-08-21T19:32:55.717Z,24.70
2022-08-21T19:35:23.226Z,24.60
2022-08-21T19:37:49.986Z,24.60
2022-08-21T19:40:19.466Z,24.60
2022-08-21T19:42:49.088Z,24.50
2022-08-21T19:45:15.864Z,24.50
2022-08-21T19:47:44.781Z,24.50
2022-08-21T19:50:17.326Z,24.40
2022-08-21T19:55:31.642Z,24.30
2022-08-21T19:58:00.746Z,24.30
2022-08-21T20:00:28.027Z,24.30
2022-08-21T20:02:54.779Z,24.20
2022-08-21T20:05:21.600Z,24.20
2022-08-21T20:07:48.432Z,24.10
2022-08-21T20:10:15.129Z,24.00
2022-08-21T20:12:41.867Z,24.00
2022-08-21T20:15:09.255Z,24.00
2022-08-21T20:17:36.003Z,24.00
2022-08-21T20:20:02.730Z,23.90
2022-08-21T20:22:29.448Z,24.00
2022-08-21T20:24:56.152Z,23.90
2022-08-21T20:27:24.476Z,24.00
2022-08-21T20:29:51.284Z,23.90
2022-08-21T20:32:18.018Z,23.90
2022-08-21T20:34:45.477Z,23.80
2022-08-21T20:37:14.370Z,23.90
2022-08-21T20:40:01.387Z,24.00
2022-08-21T20:42:28.168Z,24.10
2022-08-21T20:44:54.920Z,24.30
2022-08-21T20:47:22.258Z,24.50
2022-08-21T20:49:51.755Z,24.80
2022-08-21T20:52:20.412Z,24.90
2022-08-21T20:54:59.731Z,25.20
2022-08-21T20:57:32.601Z,25.30
2022-08-21T21:00:01.571Z,25.40
2022-08-21T21:02:44.053Z,25.50
2022-08-21T21:08:25.277Z,25.30
2022-08-21T21:10:54.257Z,25.20
2022-08-21T21:13:24.088Z,25.20
2022-08-21T21:15:52.001Z,25.10
2022-08-21T21:18:36.405Z,25.00
2022-08-21T21:21:13.459Z,25.00
2022-08-21T21:23:41.814Z,24.90
2022-08-21T21:26:29.297Z,24.90
2022-08-21T21:28:59.421Z,24.90
2022-08-21T21:31:29.168Z,24.90
2022-08-21T21:33:55.947Z,24.80
2022-08-21T21:36:25.639Z,24.80
2022-08-21T21:38:59.139Z,24.70
2022-08-21T21:41:33.061Z,24.70
2022-08-21T21:43:59.974Z,24.70
2022-08-21T21:46:26.870Z,24.70
2022-08-21T21:48:59.590Z,24.70
2022-08-21T21:51:55.792Z,24.70
2022-08-21T21:54:38.735Z,24.70
2022-08-21T21:57:10.611Z,24.70
2022-08-21T21:59:43.605Z,24.70
2022-08-21T22:02:17.118Z,24.60
2022-08-21T22:04:56.071Z,24.60
2022-08-21T22:07:38.157Z,24.60
2022-08-21T22:10:19.688Z,24.60
2022-08-21T22:13:10.499Z,24.60
2022-08-21T22:15:37.965Z,24.70
2022-08-21T22:18:10.093Z,24.80
2022-08-21T22:20:46.216Z,25.00
2022-08-21T22:23:15.874Z,25.10
2022-08-21T22:25:43.341Z,25.30
2022-08-21T22:28:25.454Z,25.40
2022-08-21T22:31:12.873Z,25.60
2022-08-21T22:33:41.037Z,25.50
2022-08-21T22:36:19.528Z,25.50
2022-08-21T22:38:47.127Z,25.40
2022-08-21T22:44:02.638Z,25.20
2022-08-21T22:46:37.509Z,25.10
2022-08-21T22:49:08.198Z,25.10
2022-08-21T22:51:39.314Z,25.10
2022-08-21T22:57:04.683Z,25.00
2022-08-21T22:59:34.895Z,24.90
2022-08-21T23:02:03.797Z,24.90
2022-08-21T23:04:31.548Z,24.90
2022-08-21T23:07:01.397Z,24.80
2022-08-21T23:09:28.129Z,24.80
2022-08-21T23:11:55.691Z,24.80
2022-08-21T23:14:23.754Z,24.70
2022-08-21T23:16:58.544Z,24.70
2022-08-21T23:19:38.000Z,24.70
2022-08-21T23:22:18.125Z,24.60
2022-08-21T23:25:09.017Z,24.70
2022-08-21T23:27:35.966Z,24.70
2022-08-21T23:30:07.273Z,24.60
2022-08-21T23:32:47.178Z,24.60
2022-08-21T23:35:56.445Z,24.60
2022-08-21T23:38:27.949Z,24.60
2022-08-21T23:40:56.316Z,24.60
2022-08-21T23:43:23.022Z,24.60
2022-08-21T23:46:09.837Z,24.60
2022-08-21T23:48:43.895Z,24.70
2022-08-21T23:51:12.701Z,24.90
2022-08-21T23:56:38.347Z,25.20
2022-08-21T23:59:08.050Z,25.40
